sensor_id;sensor_type;location;lat;lon;timestamp;P1;durP1;ratioP1;P2;durP2;ratioP2
46505;SDS011;32220;49.808;9.968;2023-04-01T00:00:17;4.40;;;1.03;;
46505;SDS011;32220;49.808;9.968;2023-04-01T00:02:46;5.67;;;1.30;;
46505;SDS011;32220;49.808;9.968;2023-04-01T00:05:14;5.10;;;1.20;;
46505;SDS011;32220;49.808;9.968;2023-04-01T00:07:43;2.77;;;1.00;;
46505;SDS011;32220;49.808;9.968;2023-04-01T00:10:11;3.20;;;0.80;;
46505;SDS011;32220;49.808;9.968;2023-04-01T00:12:39;2.20;;;1.03;;
46505;SDS011;32220;49.808;9.968;2023-04-01T00:15:10;5.17;;;1.30;;
46505;SDS011;32220;49.808;9.968;2023-04-01T00:17:40;3.00;;;0.90;;
46505;SDS011;32220;49.808;9.968;2023-04-01T00:20:08;2.13;;;0.93;;
46505;SDS011;32220;49.808;9.968;2023-04-01T00:22:36;1.77;;;0.83;;
46505;SDS011;32220;49.808;9.968;2023-04-01T00:25:04;1.93;;;0.67;;
46505;SDS011;32220;49.808;9.968;2023-04-01T00:27:32;2.37;;;0.83;;
46505;SDS011;32220;49.808;9.968;2023-04-01T00:30:00;4.00;;;0.90;;
46505;SDS011;32220;49.808;9.968;2023-04-01T00:32:28;3.13;;;1.17;;
46505;SDS011;32220;49.808;9.968;2023-04-01T00:34:58;2.80;;;0.90;;
46505;SDS011;32220;49.808;9.968;2023-04-01T00:37:26;5.43;;;1.10;;
46505;SDS011;32220;49.808;9.968;2023-04-01T00:39:53;3.03;;;0.90;;
46505;SDS011;32220;49.808;9.968;2023-04-01T00:42:21;1.93;;;0.87;;
46505;SDS011;32220;49.808;9.968;2023-04-01T00:44:50;3.83;;;1.37;;
46505;SDS011;32220;49.808;9.968;2023-04-01T00:47:19;3.53;;;0.90;;
46505;SDS011;32220;49.808;9.968;2023-04-01T00:49:49;2.20;;;0.70;;
46505;SDS011;32220;49.808;9.968;2023-04-01T00:52:21;2.23;;;1.10;;
46505;SDS011;32220;49.808;9.968;2023-04-01T00:54:52;1.77;;;0.93;;
46505;SDS011;32220;49.808;9.968;2023-04-01T00:57:28;1.77;;;0.80;;
46505;SDS011;32220;49.808;9.968;2023-04-01T00:59:58;4.17;;;0.70;;
46505;SDS011;32220;49.808;9.968;2023-04-01T01:02:26;2.23;;;0.80;;
46505;SDS011;32220;49.808;9.968;2023-04-01T01:04:54;2.90;;;0.87;;
46505;SDS011;32220;49.808;9.968;2023-04-01T01:07:25;4.83;;;0.93;;
46505;SDS011;32220;49.808;9.968;2023-04-01T01:10:01;4.47;;;0.90;;
46505;SDS011;32220;49.808;9.968;2023-04-01T01:12:34;3.67;;;0.90;;
46505;SDS011;32220;49.808;9.968;2023-04-01T01:15:09;2.23;;;0.60;;
46505;SDS011;32220;49.808;9.968;2023-04-01T01:17:45;3.17;;;0.80;;
46505;SDS011;32220;49.808;9.968;2023-04-01T01:26:52;3.73;;;0.77;;
46505;SDS011;32220;49.808;9.968;2023-04-01T01:32:41;2.13;;;0.83;;
46505;SDS011;32220;49.808;9.968;2023-04-01T01:35:26;1.83;;;0.70;;
46505;SDS011;32220;49.808;9.968;2023-04-01T01:38:00;3.70;;;1.10;;
46505;SDS011;32220;49.808;9.968;2023-04-01T01:40:31;6.83;;;1.07;;
46505;SDS011;32220;49.808;9.968;2023-04-01T01:43:01;2.77;;;0.80;;
46505;SDS011;32220;49.808;9.968;2023-04-01T01:45:32;2.23;;;0.87;;
46505;SDS011;32220;49.808;9.968;2023-04-01T01:48:02;3.07;;;0.70;;
46505;SDS011;32220;49.808;9.968;2023-04-01T01:50:33;2.27;;;1.03;;
46505;SDS011;32220;49.808;9.968;2023-04-01T01:53:03;2.90;;;1.00;;
46505;SDS011;32220;49.808;9.968;2023-04-01T01:55:32;4.07;;;1.00;;
46505;SDS011;32220;49.808;9.968;2023-04-01T01:58:04;2.07;;;0.80;;
46505;SDS011;32220;49.808;9.968;2023-04-01T02:00:38;2.53;;;0.87;;
46505;SDS011;32220;49.808;9.968;2023-04-01T02:03:08;3.13;;;1.10;;
46505;SDS011;32220;49.808;9.968;2023-04-01T02:05:38;2.87;;;0.80;;
46505;SDS011;32220;49.808;9.968;2023-04-01T02:08:09;3.37;;;0.90;;
46505;SDS011;32220;49.808;9.968;2023-04-01T02:10:42;3.27;;;1.00;;
46505;SDS011;32220;49.808;9.968;2023-04-01T02:13:16;4.90;;;1.00;;
46505;SDS011;32220;49.808;9.968;2023-04-01T02:15:47;2.00;;;0.90;;
46505;SDS011;32220;49.808;9.968;2023-04-01T02:18:17;4.70;;;0.90;;
46505;SDS011;32220;49.808;9.968;2023-04-01T02:20:48;3.93;;;1.20;;
46505;SDS011;32220;49.808;9.968;2023-04-01T02:23:17;1.47;;;0.70;;
46505;SDS011;32220;49.808;9.968;2023-04-01T02:25:44;2.93;;;1.10;;
46505;SDS011;32220;49.808;9.968;2023-04-01T02:28:13;2.17;;;0.70;;
46505;SDS011;32220;49.808;9.968;2023-04-01T02:30:45;3.40;;;0.80;;
46505;SDS011;32220;49.808;9.968;2023-04-01T02:33:15;1.50;;;0.60;;
46505;SDS011;32220;49.808;9.968;2023-04-01T02:35:43;3.87;;;1.07;;
46505;SDS011;32220;49.808;9.968;2023-04-01T02:38:12;3.40;;;2.13;;
46505;SDS011;32220;49.808;9.968;2023-04-01T02:40:42;2.67;;;0.80;;
46505;SDS011;32220;49.808;9.968;2023-04-01T02:43:11;2.47;;;0.73;;
46505;SDS011;32220;49.808;9.968;2023-04-01T02:45:39;3.33;;;1.00;;
46505;SDS011;32220;49.808;9.968;2023-04-01T02:48:07;4.27;;;0.90;;
46505;SDS011;32220;49.808;9.968;2023-04-01T02:50:35;1.90;;;0.70;;
46505;SDS011;32220;49.808;9.968;2023-04-01T02:53:03;1.77;;;0.80;;
46505;SDS011;32220;49.808;9.968;2023-04-01T02:55:33;2.57;;;0.87;;
46505;SDS011;32220;49.808;9.968;2023-04-01T02:58:01;2.27;;;1.20;;
46505;SDS011;32220;49.808;9.968;2023-04-01T03:00:29;2.60;;;0.70;;
46505;SDS011;32220;49.808;9.968;2023-04-01T03:02:57;2.57;;;0.90;;
46505;SDS011;32220;49.808;9.968;2023-04-01T03:05:25;2.33;;;1.00;;
46505;SDS011;32220;49.808;9.968;2023-04-01T03:07:53;1.97;;;0.80;;
46505;SDS011;32220;49.808;9.968;2023-04-01T03:10:20;6.93;;;1.47;;
46505;SDS011;32220;49.808;9.968;2023-04-01T03:12:49;4.23;;;1.10;;
46505;SDS011;32220;49.808;9.968;2023-04-01T03:15:17;4.00;;;1.20;;
46505;SDS011;32220;49.808;9.968;2023-04-01T03:17:45;3.53;;;1.20;;
46505;SDS011;32220;49.808;9.968;2023-04-01T03:20:13;1.37;;;0.80;;
46505;SDS011;32220;49.808;9.968;2023-04-01T03:22:41;3.10;;;0.70;;
46505;SDS011;32220;49.808;9.968;2023-04-01T03:25:09;4.20;;;0.90;;
46505;SDS011;32220;49.808;9.968;2023-04-01T03:27:38;3.87;;;1.00;;
46505;SDS011;32220;49.808;9.968;2023-04-01T03:30:09;1.77;;;0.70;;
46505;SDS011;32220;49.808;9.968;2023-04-01T03:32:46;2.60;;;1.00;;
46505;SDS011;32220;49.808;9.968;2023-04-01T03:35:13;5.30;;;0.90;;
46505;SDS011;32220;49.808;9.968;2023-04-01T03:37:41;5.70;;;1.20;;
46505;SDS011;32220;49.808;9.968;2023-04-01T03:40:09;1.20;;;0.83;;
46505;SDS011;32220;49.808;9.968;2023-04-01T03:42:37;1.73;;;0.87;;
46505;SDS011;32220;49.808;9.968;2023-04-01T03:45:06;3.73;;;0.83;;
46505;SDS011;32220;49.808;9.968;2023-04-01T03:47:35;2.73;;;0.97;;
46505;SDS011;32220;49.808;9.968;2023-04-01T03:50:03;3.10;;;1.17;;
46505;SDS011;32220;49.808;9.968;2023-04-01T03:52:32;2.83;;;1.03;;
46505;SDS011;32220;49.808;9.968;2023-04-01T03:55:00;2.40;;;0.80;;
46505;SDS011;32220;49.808;9.968;2023-04-01T03:57:30;3.97;;;0.90;;
46505;SDS011;32220;49.808;9.968;2023-04-01T04:00:04;3.50;;;0.97;;
46505;SDS011;32220;49.808;9.968;2023-04-01T04:02:41;3.13;;;0.90;;
46505;SDS011;32220;49.808;9.968;2023-04-01T04:05:10;2.90;;;0.83;;
46505;SDS011;32220;49.808;9.968;2023-04-01T04:07:39;2.57;;;0.80;;
46505;SDS011;32220;49.808;9.968;2023-04-01T04:10:08;3.17;;;1.00;;
46505;SDS011;32220;49.808;9.968;2023-04-01T04:12:36;3.77;;;1.10;;
46505;SDS011;32220;49.808;9.968;2023-04-01T04:15:05;2.63;;;0.90;;
46505;SDS011;32220;49.808;9.968;2023-04-01T04:17:33;1.60;;;0.80;;
46505;SDS011;32220;49.808;9.968;2023-04-01T04:20:03;2.20;;;0.70;;
46505;SDS011;32220;49.808;9.968;2023-04-01T04:22:31;3.60;;;1.10;;
46505;SDS011;32220;49.808;9.968;2023-04-01T04:24:59;2.80;;;1.00;;
46505;SDS011;32220;49.808;9.968;2023-04-01T04:27:28;1.43;;;0.50;;
46505;SDS011;32220;49.808;9.968;2023-04-01T04:30:10;3.23;;;1.00;;
46505;SDS011;32220;49.808;9.968;2023-04-01T04:32:39;3.10;;;0.80;;
46505;SDS011;32220;49.808;9.968;2023-04-01T04:35:09;1.23;;;0.70;;
46505;SDS011;32220;49.808;9.968;2023-04-01T04:37:37;1.93;;;0.70;;
46505;SDS011;32220;49.808;9.968;2023-04-01T04:40:06;1.67;;;0.60;;
46505;SDS011;32220;49.808;9.968;2023-04-01T04:42:34;1.57;;;0.63;;
46505;SDS011;32220;49.808;9.968;2023-04-01T04:45:08;2.03;;;0.77;;
46505;SDS011;32220;49.808;9.968;2023-04-01T04:47:42;3.13;;;0.90;;
46505;SDS011;32220;49.808;9.968;2023-04-01T04:50:12;2.43;;;0.83;;
46505;SDS011;32220;49.808;9.968;2023-04-01T04:52:40;1.77;;;0.80;;
46505;SDS011;32220;49.808;9.968;2023-04-01T04:55:08;3.90;;;0.87;;
46505;SDS011;32220;49.808;9.968;2023-04-01T04:57:36;1.60;;;0.80;;
46505;SDS011;32220;49.808;9.968;2023-04-01T05:00:04;1.47;;;0.73;;
46505;SDS011;32220;49.808;9.968;2023-04-01T05:02:45;1.30;;;0.63;;
46505;SDS011;32220;49.808;9.968;2023-04-01T05:05:14;1.47;;;0.60;;
46505;SDS011;32220;49.808;9.968;2023-04-01T05:07:42;2.93;;;0.80;;
46505;SDS011;32220;49.808;9.968;2023-04-01T05:10:10;1.20;;;0.50;;
46505;SDS011;32220;49.808;9.968;2023-04-01T05:12:37;1.03;;;0.47;;
46505;SDS011;32220;49.808;9.968;2023-04-01T05:15:08;2.63;;;0.80;;
46505;SDS011;32220;49.808;9.968;2023-04-01T05:17:37;1.43;;;0.50;;
46505;SDS011;32220;49.808;9.968;2023-04-01T05:20:05;1.00;;;0.50;;
46505;SDS011;32220;49.808;9.968;2023-04-01T05:22:35;2.53;;;1.03;;
46505;SDS011;32220;49.808;9.968;2023-04-01T05:25:02;1.57;;;0.40;;
46505;SDS011;32220;49.808;9.968;2023-04-01T05:27:31;1.80;;;0.70;;
46505;SDS011;32220;49.808;9.968;2023-04-01T05:29:59;2.27;;;0.80;;
46505;SDS011;32220;49.808;9.968;2023-04-01T05:32:47;2.00;;;0.60;;
46505;SDS011;32220;49.808;9.968;2023-04-01T05:35:15;2.77;;;0.60;;
46505;SDS011;32220;49.808;9.968;2023-04-01T05:37:44;2.07;;;0.67;;
46505;SDS011;32220;49.808;9.968;2023-04-01T05:40:11;1.80;;;0.60;;
46505;SDS011;32220;49.808;9.968;2023-04-01T05:42:39;1.07;;;0.57;;
46505;SDS011;32220;49.808;9.968;2023-04-01T05:45:09;0.67;;;0.47;;
46505;SDS011;32220;49.808;9.968;2023-04-01T05:47:56;1.47;;;0.83;;
46505;SDS011;32220;49.808;9.968;2023-04-01T05:50:23;1.70;;;0.73;;
46505;SDS011;32220;49.808;9.968;2023-04-01T05:52:53;1.20;;;0.60;;
46505;SDS011;32220;49.808;9.968;2023-04-01T05:55:22;3.03;;;0.80;;
46505;SDS011;32220;49.808;9.968;2023-04-01T05:57:50;2.50;;;1.03;;
46505;SDS011;32220;49.808;9.968;2023-04-01T06:00:18;1.20;;;0.50;;
46505;SDS011;32220;49.808;9.968;2023-04-01T06:02:47;2.53;;;0.60;;
46505;SDS011;32220;49.808;9.968;2023-04-01T06:05:15;1.57;;;0.60;;
46505;SDS011;32220;49.808;9.968;2023-04-01T06:07:46;1.50;;;0.70;;
46505;SDS011;32220;49.808;9.968;2023-04-01T06:10:17;2.50;;;0.50;;
46505;SDS011;32220;49.808;9.968;2023-04-01T06:12:51;2.57;;;0.47;;
46505;SDS011;32220;49.808;9.968;2023-04-01T06:15:33;1.27;;;0.60;;
46505;SDS011;32220;49.808;9.968;2023-04-01T06:18:21;2.00;;;0.60;;
46505;SDS011;32220;49.808;9.968;2023-04-01T06:21:17;3.60;;;0.83;;
46505;SDS011;32220;49.808;9.968;2023-04-01T06:24:19;2.83;;;0.80;;
46505;SDS011;32220;49.808;9.968;2023-04-01T06:27:02;2.37;;;0.90;;
46505;SDS011;32220;49.808;9.968;2023-04-01T06:29:44;2.70;;;0.70;;
46505;SDS011;32220;49.808;9.968;2023-04-01T06:32:25;2.03;;;0.70;;
46505;SDS011;32220;49.808;9.968;2023-04-01T06:35:21;3.20;;;1.13;;
46505;SDS011;32220;49.808;9.968;2023-04-01T06:38:01;1.20;;;0.70;;
46505;SDS011;32220;49.808;9.968;2023-04-01T06:41:13;1.33;;;0.60;;
46505;SDS011;32220;49.808;9.968;2023-04-01T06:43:57;1.83;;;0.70;;
46505;SDS011;32220;49.808;9.968;2023-04-01T06:46:53;2.13;;;0.80;;
46505;SDS011;32220;49.808;9.968;2023-04-01T06:49:47;4.10;;;0.67;;
46505;SDS011;32220;49.808;9.968;2023-04-01T06:52:40;4.13;;;0.80;;
46505;SDS011;32220;49.808;9.968;2023-04-01T06:55:50;1.57;;;0.83;;
46505;SDS011;32220;49.808;9.968;2023-04-01T06:58:37;1.00;;;0.50;;
46505;SDS011;32220;49.808;9.968;2023-04-01T07:01:12;3.40;;;0.90;;
46505;SDS011;32220;49.808;9.968;2023-04-01T07:03:44;2.37;;;1.40;;
46505;SDS011;32220;49.808;9.968;2023-04-01T07:06:19;3.37;;;0.70;;
46505;SDS011;32220;49.808;9.968;2023-04-01T07:08:57;1.40;;;0.60;;
46505;SDS011;32220;49.808;9.968;2023-04-01T07:11:44;1.60;;;0.70;;
46505;SDS011;32220;49.808;9.968;2023-04-01T07:14:41;1.57;;;0.80;;
46505;SDS011;32220;49.808;9.968;2023-04-01T07:17:14;1.87;;;0.73;;
46505;SDS011;32220;49.808;9.968;2023-04-01T07:19:45;1.50;;;0.70;;
46505;SDS011;32220;49.808;9.968;2023-04-01T07:22:20;1.23;;;0.63;;
46505;SDS011;32220;49.808;9.968;2023-04-01T07:25:14;5.17;;;0.70;;
46505;SDS011;32220;49.808;9.968;2023-04-01T07:27:51;2.63;;;0.87;;
46505;SDS011;32220;49.808;9.968;2023-04-01T07:30:20;2.50;;;0.67;;
46505;SDS011;32220;49.808;9.968;2023-04-01T07:32:51;2.53;;;0.83;;
46505;SDS011;32220;49.808;9.968;2023-04-01T07:35:24;3.40;;;1.20;;
46505;SDS011;32220;49.808;9.968;2023-04-01T07:38:01;2.10;;;0.67;;
46505;SDS011;32220;49.808;9.968;2023-04-01T07:40:45;2.33;;;1.10;;
46505;SDS011;32220;49.808;9.968;2023-04-01T07:43:27;2.10;;;0.60;;
46505;SDS011;32220;49.808;9.968;2023-04-01T07:46:28;1.20;;;0.57;;
46505;SDS011;32220;49.808;9.968;2023-04-01T07:49:09;1.07;;;0.60;;
46505;SDS011;32220;49.808;9.968;2023-04-01T07:51:42;3.53;;;0.67;;
46505;SDS011;32220;49.808;9.968;2023-04-01T07:54:22;2.53;;;0.60;;
46505;SDS011;32220;49.808;9.968;2023-04-01T07:56:55;2.17;;;0.80;;
46505;SDS011;32220;49.808;9.968;2023-04-01T07:59:52;1.00;;;0.60;;
46505;SDS011;32220;49.808;9.968;2023-04-01T08:02:44;1.00;;;0.60;;
46505;SDS011;32220;49.808;9.968;2023-04-01T08:05:25;1.87;;;0.67;;
46505;SDS011;32220;49.808;9.968;2023-04-01T08:07:59;1.93;;;0.70;;
46505;SDS011;32220;49.808;9.968;2023-04-01T08:11:12;1.27;;;0.70;;
46505;SDS011;32220;49.808;9.968;2023-04-01T08:14:15;2.60;;;0.60;;
46505;SDS011;32220;49.808;9.968;2023-04-01T08:17:19;0.97;;;0.80;;
46505;SDS011;32220;49.808;9.968;2023-04-01T08:19:57;1.30;;;0.60;;
46505;SDS011;32220;49.808;9.968;2023-04-01T08:22:39;2.30;;;0.60;;
46505;SDS011;32220;49.808;9.968;2023-04-01T08:25:18;1.70;;;0.40;;
46505;SDS011;32220;49.808;9.968;2023-04-01T08:27:51;1.20;;;0.57;;
46505;SDS011;32220;49.808;9.968;2023-04-01T08:30:24;1.23;;;0.70;;
46505;SDS011;32220;49.808;9.968;2023-04-01T08:32:55;1.03;;;0.60;;
46505;SDS011;32220;49.808;9.968;2023-04-01T08:35:28;0.73;;;0.50;;
46505;SDS011;32220;49.808;9.968;2023-04-01T08:38:05;0.80;;;0.50;;
46505;SDS011;32220;49.808;9.968;2023-04-01T08:47:06;0.77;;;0.40;;
46505;SDS011;32220;49.808;9.968;2023-04-01T08:49:56;1.30;;;0.50;;
46505;SDS011;32220;49.808;9.968;2023-04-01T08:52:48;0.83;;;0.60;;
46505;SDS011;32220;49.808;9.968;2023-04-01T08:55:38;0.93;;;0.50;;
46505;SDS011;32220;49.808;9.968;2023-04-01T09:01:33;0.87;;;0.40;;
46505;SDS011;32220;49.808;9.968;2023-04-01T09:04:34;0.40;;;0.40;;
46505;SDS011;32220;49.808;9.968;2023-04-01T09:07:17;0.67;;;0.33;;
46505;SDS011;32220;49.808;9.968;2023-04-01T09:10:09;0.30;;;0.30;;
46505;SDS011;32220;49.808;9.968;2023-04-01T09:16:24;0.87;;;0.47;;
46505;SDS011;32220;49.808;9.968;2023-04-01T09:19:10;1.13;;;0.60;;
46505;SDS011;32220;49.808;9.968;2023-04-01T09:22:04;1.80;;;0.40;;
46505;SDS011;32220;49.808;9.968;2023-04-01T09:24:56;0.47;;;0.43;;
46505;SDS011;32220;49.808;9.968;2023-04-01T09:27:53;0.50;;;0.43;;
46505;SDS011;32220;49.808;9.968;2023-04-01T09:36:46;1.50;;;0.50;;
46505;SDS011;32220;49.808;9.968;2023-04-01T09:39:22;1.00;;;0.40;;
46505;SDS011;32220;49.808;9.968;2023-04-01T09:42:07;0.50;;;0.40;;
46505;SDS011;32220;49.808;9.968;2023-04-01T09:45:00;0.90;;;0.43;;
46505;SDS011;32220;49.808;9.968;2023-04-01T09:50:31;0.50;;;0.40;;
46505;SDS011;32220;49.808;9.968;2023-04-01T09:53:12;0.40;;;0.23;;
46505;SDS011;32220;49.808;9.968;2023-04-01T10:02:42;1.13;;;0.50;;
46505;SDS011;32220;49.808;9.968;2023-04-01T10:08:54;1.30;;;0.40;;
46505;SDS011;32220;49.808;9.968;2023-04-01T10:11:58;0.50;;;0.50;;
46505;SDS011;32220;49.808;9.968;2023-04-01T10:14:51;0.60;;;0.60;;
46505;SDS011;32220;49.808;9.968;2023-04-01T10:17:52;0.40;;;0.40;;
46505;SDS011;32220;49.808;9.968;2023-04-01T10:23:46;0.83;;;0.33;;
46505;SDS011;32220;49.808;9.968;2023-04-01T10:26:52;0.40;;;0.40;;
46505;SDS011;32220;49.808;9.968;2023-04-01T10:33:27;0.97;;;0.50;;
46505;SDS011;32220;49.808;9.968;2023-04-01T10:42:47;0.60;;;0.40;;
46505;SDS011;32220;49.808;9.968;2023-04-01T10:55:27;0.60;;;0.40;;
46505;SDS011;32220;49.808;9.968;2023-04-01T11:05:54;0.40;;;0.40;;
46505;SDS011;32220;49.808;9.968;2023-04-01T11:08:50;0.47;;;0.30;;
46505;SDS011;32220;49.808;9.968;2023-04-01T11:11:51;0.33;;;0.30;;
46505;SDS011;32220;49.808;9.968;2023-04-01T11:14:43;0.30;;;0.30;;
46505;SDS011;32220;49.808;9.968;2023-04-01T11:17:39;0.63;;;0.30;;
46505;SDS011;32220;49.808;9.968;2023-04-01T11:20:43;0.30;;;0.30;;
46505;SDS011;32220;49.808;9.968;2023-04-01T11:23:29;1.07;;;0.30;;
46505;SDS011;32220;49.808;9.968;2023-04-01T11:26:14;0.80;;;0.40;;
46505;SDS011;32220;49.808;9.968;2023-04-01T11:29:28;0.40;;;0.40;;
46505;SDS011;32220;49.808;9.968;2023-04-01T11:32:22;0.40;;;0.40;;
46505;SDS011;32220;49.808;9.968;2023-04-01T11:35:08;0.50;;;0.50;;
46505;SDS011;32220;49.808;9.968;2023-04-01T11:37:51;0.40;;;0.30;;
46505;SDS011;32220;49.808;9.968;2023-04-01T11:40:47;1.33;;;0.70;;
46505;SDS011;32220;49.808;9.968;2023-04-01T11:50:14;0.30;;;0.30;;
46505;SDS011;32220;49.808;9.968;2023-04-01T11:53:02;0.40;;;0.40;;
46505;SDS011;32220;49.808;9.968;2023-04-01T11:55:44;0.73;;;0.43;;
46505;SDS011;32220;49.808;9.968;2023-04-01T11:58:22;0.60;;;0.47;;
46505;SDS011;32220;49.808;9.968;2023-04-01T12:01:10;0.43;;;0.40;;
46505;SDS011;32220;49.808;9.968;2023-04-01T12:04:00;1.07;;;0.50;;
46505;SDS011;32220;49.808;9.968;2023-04-01T12:06:50;0.80;;;0.60;;
46505;SDS011;32220;49.808;9.968;2023-04-01T12:09:30;0.40;;;0.40;;
46505;SDS011;32220;49.808;9.968;2023-04-01T12:12:10;0.67;;;0.37;;
46505;SDS011;32220;49.808;9.968;2023-04-01T12:14:47;0.60;;;0.60;;
46505;SDS011;32220;49.808;9.968;2023-04-01T12:17:27;0.93;;;0.40;;
46505;SDS011;32220;49.808;9.968;2023-04-01T12:20:12;0.40;;;0.40;;
46505;SDS011;32220;49.808;9.968;2023-04-01T12:23:14;0.33;;;0.30;;
46505;SDS011;32220;49.808;9.968;2023-04-01T12:26:00;0.80;;;0.50;;
46505;SDS011;32220;49.808;9.968;2023-04-01T12:28:51;0.50;;;0.50;;
46505;SDS011;32220;49.808;9.968;2023-04-01T12:31:34;0.80;;;0.80;;
46505;SDS011;32220;49.808;9.968;2023-04-01T12:34:18;1.33;;;0.80;;
46505;SDS011;32220;49.808;9.968;2023-04-01T12:37:07;0.40;;;0.30;;
46505;SDS011;32220;49.808;9.968;2023-04-01T12:40:01;0.60;;;0.50;;
46505;SDS011;32220;49.808;9.968;2023-04-01T12:42:44;0.53;;;0.40;;
46505;SDS011;32220;49.808;9.968;2023-04-01T12:45:27;1.00;;;0.60;;
46505;SDS011;32220;49.808;9.968;2023-04-01T12:48:16;0.90;;;0.37;;
46505;SDS011;32220;49.808;9.968;2023-04-01T12:51:21;0.40;;;0.40;;
46505;SDS011;32220;49.808;9.968;2023-04-01T12:54:10;0.93;;;0.60;;
46505;SDS011;32220;49.808;9.968;2023-04-01T12:56:56;1.27;;;0.60;;
46505;SDS011;32220;49.808;9.968;2023-04-01T13:02:36;0.53;;;0.53;;
46505;SDS011;32220;49.808;9.968;2023-04-01T13:05:23;0.40;;;0.40;;
46505;SDS011;32220;49.808;9.968;2023-04-01T13:08:08;1.70;;;0.50;;
46505;SDS011;32220;49.808;9.968;2023-04-01T13:10:51;0.40;;;0.40;;
46505;SDS011;32220;49.808;9.968;2023-04-01T13:16:41;1.40;;;0.40;;
46505;SDS011;32220;49.808;9.968;2023-04-01T13:19:17;1.97;;;0.70;;
46505;SDS011;32220;49.808;9.968;2023-04-01T13:21:54;0.60;;;0.40;;
46505;SDS011;32220;49.808;9.968;2023-04-01T13:24:31;0.30;;;0.30;;
46505;SDS011;32220;49.808;9.968;2023-04-01T13:27:13;0.93;;;0.50;;
46505;SDS011;32220;49.808;9.968;2023-04-01T13:29:57;0.43;;;0.40;;
46505;SDS011;32220;49.808;9.968;2023-04-01T13:32:36;0.90;;;0.40;;
46505;SDS011;32220;49.808;9.968;2023-04-01T13:35:18;0.40;;;0.40;;
46505;SDS011;32220;49.808;9.968;2023-04-01T13:41:09;0.37;;;0.37;;
46505;SDS011;32220;49.808;9.968;2023-04-01T13:43:50;0.60;;;0.47;;
46505;SDS011;32220;49.808;9.968;2023-04-01T13:46:38;0.77;;;0.50;;
46505;SDS011;32220;49.808;9.968;2023-04-01T13:50:16;1.53;;;0.50;;
46505;SDS011;32220;49.808;9.968;2023-04-01T13:52:55;0.53;;;0.50;;
46505;SDS011;32220;49.808;9.968;2023-04-01T13:58:39;1.00;;;0.70;;
46505;SDS011;32220;49.808;9.968;2023-04-01T14:01:18;0.73;;;0.70;;
46505;SDS011;32220;49.808;9.968;2023-04-01T14:04:02;0.80;;;0.60;;
46505;SDS011;32220;49.808;9.968;2023-04-01T14:06:46;1.03;;;0.70;;
46505;SDS011;32220;49.808;9.968;2023-04-01T14:09:35;0.67;;;0.60;;
46505;SDS011;32220;49.808;9.968;2023-04-01T14:12:26;0.50;;;0.50;;
46505;SDS011;32220;49.808;9.968;2023-04-01T14:15:07;0.80;;;0.80;;
46505;SDS011;32220;49.808;9.968;2023-04-01T14:18:00;0.50;;;0.50;;
46505;SDS011;32220;49.808;9.968;2023-04-01T14:20:42;2.33;;;0.60;;
46505;SDS011;32220;49.808;9.968;2023-04-01T14:26:22;0.40;;;0.40;;
46505;SDS011;32220;49.808;9.968;2023-04-01T14:29:20;0.93;;;0.40;;
46505;SDS011;32220;49.808;9.968;2023-04-01T14:31:58;0.63;;;0.50;;
46505;SDS011;32220;49.808;9.968;2023-04-01T14:37:34;0.60;;;0.60;;
46505;SDS011;32220;49.808;9.968;2023-04-01T14:40:20;0.70;;;0.60;;
46505;SDS011;32220;49.808;9.968;2023-04-01T14:42:59;0.67;;;0.40;;
46505;SDS011;32220;49.808;9.968;2023-04-01T14:45:40;0.47;;;0.47;;
46505;SDS011;32220;49.808;9.968;2023-04-01T14:48:23;0.53;;;0.40;;
46505;SDS011;32220;49.808;9.968;2023-04-01T14:50:57;0.60;;;0.43;;
46505;SDS011;32220;49.808;9.968;2023-04-01T14:53:37;0.50;;;0.50;;
46505;SDS011;32220;49.808;9.968;2023-04-01T14:56:11;0.50;;;0.50;;
46505;SDS011;32220;49.808;9.968;2023-04-01T14:58:41;0.43;;;0.40;;
46505;SDS011;32220;49.808;9.968;2023-04-01T15:01:15;0.70;;;0.50;;
46505;SDS011;32220;49.808;9.968;2023-04-01T15:04:13;0.50;;;0.50;;
46505;SDS011;32220;49.808;9.968;2023-04-01T15:07:00;1.07;;;0.60;;
46505;SDS011;32220;49.808;9.968;2023-04-01T15:09:40;0.40;;;0.40;;
46505;SDS011;32220;49.808;9.968;2023-04-01T15:12:20;0.50;;;0.50;;
46505;SDS011;32220;49.808;9.968;2023-04-01T15:15:09;1.70;;;0.60;;
46505;SDS011;32220;49.808;9.968;2023-04-01T15:17:58;0.50;;;0.50;;
46505;SDS011;32220;49.808;9.968;2023-04-01T15:20:49;2.10;;;0.50;;
46505;SDS011;32220;49.808;9.968;2023-04-01T15:23:28;1.13;;;0.50;;
46505;SDS011;32220;49.808;9.968;2023-04-01T15:28:59;2.00;;;0.50;;
46505;SDS011;32220;49.808;9.968;2023-04-01T15:31:38;0.43;;;0.43;;
46505;SDS011;32220;49.808;9.968;2023-04-01T15:34:19;1.83;;;0.90;;
46505;SDS011;32220;49.808;9.968;2023-04-01T15:36:56;0.73;;;0.60;;
46505;SDS011;32220;49.808;9.968;2023-04-01T15:39:35;0.50;;;0.50;;
46505;SDS011;32220;49.808;9.968;2023-04-01T15:45:17;0.50;;;0.50;;
46505;SDS011;32220;49.808;9.968;2023-04-01T15:48:01;0.50;;;0.50;;
46505;SDS011;32220;49.808;9.968;2023-04-01T15:56:26;0.50;;;0.50;;
46505;SDS011;32220;49.808;9.968;2023-04-01T15:59:09;1.57;;;0.77;;
46505;SDS011;32220;49.808;9.968;2023-04-01T16:01:51;2.03;;;0.73;;
46505;SDS011;32220;49.808;9.968;2023-04-01T16:04:42;1.50;;;0.60;;
46505;SDS011;32220;49.808;9.968;2023-04-01T16:07:19;1.13;;;0.60;;
46505;SDS011;32220;49.808;9.968;2023-04-01T16:09:56;1.60;;;0.60;;
46505;SDS011;32220;49.808;9.968;2023-04-01T16:12:51;1.57;;;0.50;;
46505;SDS011;32220;49.808;9.968;2023-04-01T16:15:29;0.40;;;0.40;;
46505;SDS011;32220;49.808;9.968;2023-04-01T16:18:17;0.67;;;0.53;;
46505;SDS011;32220;49.808;9.968;2023-04-01T16:21:04;1.20;;;1.10;;
46505;SDS011;32220;49.808;9.968;2023-04-01T16:23:36;0.60;;;0.60;;
46505;SDS011;32220;49.808;9.968;2023-04-01T16:26:07;0.80;;;0.67;;
46505;SDS011;32220;49.808;9.968;2023-04-01T16:28:42;0.70;;;0.70;;
46505;SDS011;32220;49.808;9.968;2023-04-01T16:31:27;0.97;;;0.70;;
46505;SDS011;32220;49.808;9.968;2023-04-01T16:34:03;0.70;;;0.70;;
46505;SDS011;32220;49.808;9.968;2023-04-01T16:36:37;0.70;;;0.67;;
46505;SDS011;32220;49.808;9.968;2023-04-01T16:39:18;1.37;;;0.70;;
46505;SDS011;32220;49.808;9.968;2023-04-01T16:42:16;1.23;;;0.70;;
46505;SDS011;32220;49.808;9.968;2023-04-01T16:44:53;0.50;;;0.50;;
46505;SDS011;32220;49.808;9.968;2023-04-01T16:47:27;0.50;;;0.50;;
46505;SDS011;32220;49.808;9.968;2023-04-01T16:49:58;0.70;;;0.70;;
46505;SDS011;32220;49.808;9.968;2023-04-01T16:52:42;1.07;;;0.70;;
46505;SDS011;32220;49.808;9.968;2023-04-01T16:55:33;0.50;;;0.50;;
46505;SDS011;32220;49.808;9.968;2023-04-01T16:58:09;0.73;;;0.60;;
46505;SDS011;32220;49.808;9.968;2023-04-01T17:00:47;0.53;;;0.53;;
46505;SDS011;32220;49.808;9.968;2023-04-01T17:03:19;0.80;;;0.50;;
46505;SDS011;32220;49.808;9.968;2023-04-01T17:05:57;0.57;;;0.50;;
46505;SDS011;32220;49.808;9.968;2023-04-01T17:08:43;0.40;;;0.40;;
46505;SDS011;32220;49.808;9.968;2023-04-01T17:11:23;0.63;;;0.63;;
46505;SDS011;32220;49.808;9.968;2023-04-01T17:13:58;0.50;;;0.50;;
46505;SDS011;32220;49.808;9.968;2023-04-01T17:22:33;0.67;;;0.50;;
46505;SDS011;32220;49.808;9.968;2023-04-01T17:25:15;1.10;;;0.60;;
46505;SDS011;32220;49.808;9.968;2023-04-01T17:27:54;1.00;;;0.90;;
46505;SDS011;32220;49.808;9.968;2023-04-01T17:30:30;0.70;;;0.70;;
46505;SDS011;32220;49.808;9.968;2023-04-01T17:33:15;0.87;;;0.70;;
46505;SDS011;32220;49.808;9.968;2023-04-01T17:36:06;1.27;;;0.90;;
46505;SDS011;32220;49.808;9.968;2023-04-01T17:38:54;0.90;;;0.80;;
46505;SDS011;32220;49.808;9.968;2023-04-01T17:41:46;2.13;;;1.60;;
46505;SDS011;32220;49.808;9.968;2023-04-01T17:44:24;1.80;;;1.30;;
46505;SDS011;32220;49.808;9.968;2023-04-01T17:47:07;0.70;;;0.70;;
46505;SDS011;32220;49.808;9.968;2023-04-01T17:49:51;0.80;;;0.73;;
46505;SDS011;32220;49.808;9.968;2023-04-01T17:52:29;1.37;;;0.70;;